sensor_id;sensor_type;location;lat;lon;timestamp;P1;durP1;ratioP1;P2;durP2;ratioP2
12660;SDS011;39039;51.802;5.710;2022-07-23T00:01:48;2.80;;;1.83;;
12660;SDS011;39039;51.802;5.710;2022-07-23T00:04:17;4.47;;;2.20;;
12660;SDS011;39039;51.802;5.710;2022-07-23T00:06:44;2.37;;;1.87;;
12660;SDS011;39039;51.802;5.710;2022-07-23T00:09:11;4.70;;;2.10;;
12660;SDS011;39039;51.802;5.710;2022-07-23T00:11:38;4.20;;;1.97;;
12660;SDS011;39039;51.802;5.710;2022-07-23T00:14:05;5.57;;;2.17;;
12660;SDS011;39039;51.802;5.710;2022-07-23T00:16:32;3.57;;;2.67;;
12660;SDS011;39039;51.802;5.710;2022-07-23T00:18:59;4.67;;;2.40;;
12660;SDS011;39039;51.802;5.710;2022-07-23T00:21:29;3.77;;;2.50;;
12660;SDS011;39039;51.802;5.710;2022-07-23T00:23:56;3.87;;;1.87;;
12660;SDS011;39039;51.802;5.710;2022-07-23T00:26:23;7.20;;;2.23;;
12660;SDS011;39039;51.802;5.710;2022-07-23T00:28:50;3.77;;;2.70;;
12660;SDS011;39039;51.802;5.710;2022-07-23T00:31:17;6.07;;;2.50;;
12660;SDS011;39039;51.802;5.710;2022-07-23T00:33:44;2.40;;;1.93;;
12660;SDS011;39039;51.802;5.710;2022-07-23T00:36:11;4.10;;;2.60;;
12660;SDS011;39039;51.802;5.710;2022-07-23T00:38:39;5.33;;;2.93;;
12660;SDS011;39039;51.802;5.710;2022-07-23T00:41:06;4.43;;;2.50;;
12660;SDS011;39039;51.802;5.710;2022-07-23T00:43:33;6.40;;;3.27;;
12660;SDS011;39039;51.802;5.710;2022-07-23T00:46:00;5.00;;;2.87;;
12660;SDS011;39039;51.802;5.710;2022-07-23T00:48:27;5.60;;;2.63;;
12660;SDS011;39039;51.802;5.710;2022-07-23T00:50:54;4.97;;;3.37;;
12660;SDS011;39039;51.802;5.710;2022-07-23T00:53:22;4.77;;;3.00;;
12660;SDS011;39039;51.802;5.710;2022-07-23T00:55:50;5.97;;;3.10;;
12660;SDS011;39039;51.802;5.710;2022-07-23T00:58:17;4.00;;;2.53;;
12660;SDS011;39039;51.802;5.710;2022-07-23T01:00:45;4.83;;;3.23;;
12660;SDS011;39039;51.802;5.710;2022-07-23T01:03:12;5.77;;;3.10;;
12660;SDS011;39039;51.802;5.710;2022-07-23T01:05:39;5.53;;;3.40;;
12660;SDS011;39039;51.802;5.710;2022-07-23T01:08:06;4.17;;;3.10;;
12660;SDS011;39039;51.802;5.710;2022-07-23T01:10:33;7.30;;;3.03;;
12660;SDS011;39039;51.802;5.710;2022-07-23T01:13:03;5.30;;;3.03;;
12660;SDS011;39039;51.802;5.710;2022-07-23T01:15:30;5.17;;;3.23;;
12660;SDS011;39039;51.802;5.710;2022-07-23T01:17:57;7.03;;;3.40;;
12660;SDS011;39039;51.802;5.710;2022-07-23T01:20:24;6.23;;;3.63;;
12660;SDS011;39039;51.802;5.710;2022-07-23T01:22:53;6.27;;;3.10;;
12660;SDS011;39039;51.802;5.710;2022-07-23T01:25:20;3.80;;;2.67;;
12660;SDS011;39039;51.802;5.710;2022-07-23T01:27:47;3.20;;;2.43;;
12660;SDS011;39039;51.802;5.710;2022-07-23T01:30:15;6.07;;;3.00;;
12660;SDS011;39039;51.802;5.710;2022-07-23T01:32:42;6.40;;;3.57;;
12660;SDS011;39039;51.802;5.710;2022-07-23T01:35:09;4.00;;;2.80;;
12660;SDS011;39039;51.802;5.710;2022-07-23T01:37:36;4.90;;;3.27;;
12660;SDS011;39039;51.802;5.710;2022-07-23T01:40:06;6.03;;;2.83;;
12660;SDS011;39039;51.802;5.710;2022-07-23T01:42:33;4.37;;;2.67;;
12660;SDS011;39039;51.802;5.710;2022-07-23T01:45:01;4.30;;;2.87;;
12660;SDS011;39039;51.802;5.710;2022-07-23T01:47:28;5.20;;;3.20;;
12660;SDS011;39039;51.802;5.710;2022-07-23T01:49:55;4.70;;;3.30;;
12660;SDS011;39039;51.802;5.710;2022-07-23T01:52:22;5.87;;;3.70;;
12660;SDS011;39039;51.802;5.710;2022-07-23T01:54:49;6.10;;;4.30;;
12660;SDS011;39039;51.802;5.710;2022-07-23T01:57:18;4.67;;;3.60;;
12660;SDS011;39039;51.802;5.710;2022-07-23T01:59:45;7.03;;;3.60;;
12660;SDS011;39039;51.802;5.710;2022-07-23T02:02:12;5.00;;;3.33;;
12660;SDS011;39039;51.802;5.710;2022-07-23T02:04:39;5.70;;;3.30;;
12660;SDS011;39039;51.802;5.710;2022-07-23T02:07:06;5.77;;;3.20;;
12660;SDS011;39039;51.802;5.710;2022-07-23T02:09:33;5.87;;;3.17;;
12660;SDS011;39039;51.802;5.710;2022-07-23T02:12:00;6.57;;;3.53;;
12660;SDS011;39039;51.802;5.710;2022-07-23T02:14:29;5.47;;;3.60;;
12660;SDS011;39039;51.802;5.710;2022-07-23T02:16:56;7.10;;;4.13;;
12660;SDS011;39039;51.802;5.710;2022-07-23T02:19:23;6.27;;;3.53;;
12660;SDS011;39039;51.802;5.710;2022-07-23T02:21:50;6.30;;;3.60;;
12660;SDS011;39039;51.802;5.710;2022-07-23T02:24:17;6.43;;;3.40;;
12660;SDS011;39039;51.802;5.710;2022-07-23T02:26:44;5.47;;;3.53;;
12660;SDS011;39039;51.802;5.710;2022-07-23T02:29:11;5.37;;;3.73;;
12660;SDS011;39039;51.802;5.710;2022-07-23T02:31:39;5.60;;;3.60;;
12660;SDS011;39039;51.802;5.710;2022-07-23T02:34:06;10.77;;;3.37;;
12660;SDS011;39039;51.802;5.710;2022-07-23T02:36:36;5.00;;;3.40;;
12660;SDS011;39039;51.802;5.710;2022-07-23T02:39:04;7.43;;;3.47;;
12660;SDS011;39039;51.802;5.710;2022-07-23T02:41:31;6.57;;;3.60;;
12660;SDS011;39039;51.802;5.710;2022-07-23T02:43:58;6.63;;;3.43;;
12660;SDS011;39039;51.802;5.710;2022-07-23T02:46:25;8.23;;;3.10;;
12660;SDS011;39039;51.802;5.710;2022-07-23T02:48:53;5.63;;;3.63;;
12660;SDS011;39039;51.802;5.710;2022-07-23T02:51:20;5.40;;;3.37;;
12660;SDS011;39039;51.802;5.710;2022-07-23T02:53:48;5.90;;;3.33;;
12660;SDS011;39039;51.802;5.710;2022-07-23T02:56:14;6.93;;;3.73;;
12660;SDS011;39039;51.802;5.710;2022-07-23T02:58:41;5.60;;;3.27;;
12660;SDS011;39039;51.802;5.710;2022-07-23T03:01:08;6.93;;;3.57;;
12660;SDS011;39039;51.802;5.710;2022-07-23T03:03:36;5.00;;;3.70;;
12660;SDS011;39039;51.802;5.710;2022-07-23T03:06:04;7.73;;;3.17;;
12660;SDS011;39039;51.802;5.710;2022-07-23T03:08:31;9.93;;;3.40;;
12660;SDS011;39039;51.802;5.710;2022-07-23T03:10:58;6.43;;;3.60;;
12660;SDS011;39039;51.802;5.710;2022-07-23T03:13:25;4.93;;;3.63;;
12660;SDS011;39039;51.802;5.710;2022-07-23T03:15:52;7.90;;;3.40;;
12660;SDS011;39039;51.802;5.710;2022-07-23T03:18:19;6.53;;;3.37;;
12660;SDS011;39039;51.802;5.710;2022-07-23T03:20:46;4.90;;;3.20;;
12660;SDS011;39039;51.802;5.710;2022-07-23T03:23:15;6.13;;;3.13;;
12660;SDS011;39039;51.802;5.710;2022-07-23T03:25:43;7.07;;;3.20;;
12660;SDS011;39039;51.802;5.710;2022-07-23T03:28:11;8.93;;;3.77;;
12660;SDS011;39039;51.802;5.710;2022-07-23T03:30:38;7.37;;;3.20;;
12660;SDS011;39039;51.802;5.710;2022-07-23T03:33:05;7.07;;;3.90;;
12660;SDS011;39039;51.802;5.710;2022-07-23T03:35:32;4.67;;;3.23;;
12660;SDS011;39039;51.802;5.710;2022-07-23T03:37:59;5.13;;;3.70;;
12660;SDS011;39039;51.802;5.710;2022-07-23T03:40:28;7.80;;;3.47;;
12660;SDS011;39039;51.802;5.710;2022-07-23T03:42:54;7.20;;;3.73;;
12660;SDS011;39039;51.802;5.710;2022-07-23T03:45:21;7.87;;;3.80;;
12660;SDS011;39039;51.802;5.710;2022-07-23T03:47:48;5.27;;;3.53;;
12660;SDS011;39039;51.802;5.710;2022-07-23T03:50:15;6.00;;;3.10;;
12660;SDS011;39039;51.802;5.710;2022-07-23T03:52:42;5.37;;;3.10;;
12660;SDS011;39039;51.802;5.710;2022-07-23T03:55:09;8.50;;;4.30;;
12660;SDS011;39039;51.802;5.710;2022-07-23T03:57:38;4.77;;;3.20;;
12660;SDS011;39039;51.802;5.710;2022-07-23T04:00:06;5.43;;;3.47;;
12660;SDS011;39039;51.802;5.710;2022-07-23T04:02:34;7.17;;;3.57;;
12660;SDS011;39039;51.802;5.710;2022-07-23T04:05:01;7.53;;;3.80;;
12660;SDS011;39039;51.802;5.710;2022-07-23T04:07:28;6.77;;;4.20;;
12660;SDS011;39039;51.802;5.710;2022-07-23T04:09:55;8.93;;;4.27;;
12660;SDS011;39039;51.802;5.710;2022-07-23T04:12:22;8.67;;;4.47;;
12660;SDS011;39039;51.802;5.710;2022-07-23T04:14:51;6.53;;;3.90;;
12660;SDS011;39039;51.802;5.710;2022-07-23T04:17:18;7.97;;;4.53;;
12660;SDS011;39039;51.802;5.710;2022-07-23T04:19:45;6.77;;;4.13;;
12660;SDS011;39039;51.802;5.710;2022-07-23T04:22:11;5.87;;;3.90;;
12660;SDS011;39039;51.802;5.710;2022-07-23T04:24:39;9.97;;;4.13;;
12660;SDS011;39039;51.802;5.710;2022-07-23T04:27:06;9.47;;;3.97;;
12660;SDS011;39039;51.802;5.710;2022-07-23T04:29:33;4.80;;;3.50;;
12660;SDS011;39039;51.802;5.710;2022-07-23T04:32:01;6.40;;;4.20;;
12660;SDS011;39039;51.802;5.710;2022-07-23T04:34:28;7.87;;;3.40;;
12660;SDS011;39039;51.802;5.710;2022-07-23T04:36:55;7.00;;;4.53;;
12660;SDS011;39039;51.802;5.710;2022-07-23T04:39:22;6.77;;;3.83;;
12660;SDS011;39039;51.802;5.710;2022-07-23T04:41:49;6.37;;;3.63;;
12660;SDS011;39039;51.802;5.710;2022-07-23T04:44:16;7.80;;;3.67;;
12660;SDS011;39039;51.802;5.710;2022-07-23T04:46:43;7.37;;;3.93;;
12660;SDS011;39039;51.802;5.710;2022-07-23T04:49:12;6.93;;;3.53;;
12660;SDS011;39039;51.802;5.710;2022-07-23T04:51:39;7.50;;;4.87;;
12660;SDS011;39039;51.802;5.710;2022-07-23T04:54:06;5.27;;;3.50;;
12660;SDS011;39039;51.802;5.710;2022-07-23T04:56:33;5.37;;;3.27;;
12660;SDS011;39039;51.802;5.710;2022-07-23T04:59:00;8.17;;;3.73;;
12660;SDS011;39039;51.802;5.710;2022-07-23T05:01:27;5.13;;;2.60;;
12660;SDS011;39039;51.802;5.710;2022-07-23T05:03:54;4.33;;;2.60;;
12660;SDS011;39039;51.802;5.710;2022-07-23T05:06:22;4.20;;;2.33;;
12660;SDS011;39039;51.802;5.710;2022-07-23T05:08:49;3.38;;;2.33;;
12660;SDS011;39039;51.802;5.710;2022-07-23T05:11:16;4.55;;;2.22;;
12660;SDS011;39039;51.802;5.710;2022-07-23T05:13:43;3.10;;;2.00;;
12660;SDS011;39039;51.802;5.710;2022-07-23T05:16:10;2.65;;;2.17;;
12660;SDS011;39039;51.802;5.710;2022-07-23T05:18:37;5.25;;;2.65;;
12660;SDS011;39039;51.802;5.710;2022-07-23T05:21:05;2.28;;;1.90;;
12660;SDS011;39039;51.802;5.710;2022-07-23T05:23:33;3.25;;;2.03;;
12660;SDS011;39039;51.802;5.710;2022-07-23T05:26:00;3.78;;;2.20;;
12660;SDS011;39039;51.802;5.710;2022-07-23T05:28:27;5.47;;;2.30;;
12660;SDS011;39039;51.802;5.710;2022-07-23T05:30:54;2.72;;;1.90;;
12660;SDS011;39039;51.802;5.710;2022-07-23T05:33:21;3.50;;;1.90;;
12660;SDS011;39039;51.802;5.710;2022-07-23T05:35:48;2.78;;;1.70;;
12660;SDS011;39039;51.802;5.710;2022-07-23T05:38:15;5.38;;;2.83;;
12660;SDS011;39039;51.802;5.710;2022-07-23T05:40:44;3.60;;;2.08;;
12660;SDS011;39039;51.802;5.710;2022-07-23T05:43:11;2.70;;;1.73;;
12660;SDS011;39039;51.802;5.710;2022-07-23T05:45:38;3.08;;;1.92;;
12660;SDS011;39039;51.802;5.710;2022-07-23T05:48:05;3.40;;;2.60;;
12660;SDS011;39039;51.802;5.710;2022-07-23T05:50:32;5.53;;;2.30;;
12660;SDS011;39039;51.802;5.710;2022-07-23T05:52:59;3.97;;;1.90;;
12660;SDS011;39039;51.802;5.710;2022-07-23T05:55:26;3.25;;;1.88;;
12660;SDS011;39039;51.802;5.710;2022-07-23T05:57:58;2.47;;;1.80;;
12660;SDS011;39039;51.802;5.710;2022-07-23T06:00:25;3.30;;;1.80;;
12660;SDS011;39039;51.802;5.710;2022-07-23T06:02:53;4.07;;;2.22;;
12660;SDS011;39039;51.802;5.710;2022-07-23T06:05:20;4.38;;;2.17;;
12660;SDS011;39039;51.802;5.710;2022-07-23T06:07:47;3.15;;;1.85;;
12660;SDS011;39039;51.802;5.710;2022-07-23T06:10:14;2.80;;;1.83;;
12660;SDS011;39039;51.802;5.710;2022-07-23T06:12:41;5.18;;;2.10;;
12660;SDS011;39039;51.802;5.710;2022-07-23T06:15:10;3.75;;;2.00;;
12660;SDS011;39039;51.802;5.710;2022-07-23T06:17:37;3.50;;;1.92;;
12660;SDS011;39039;51.802;5.710;2022-07-23T06:20:05;5.00;;;2.28;;
12660;SDS011;39039;51.802;5.710;2022-07-23T06:22:32;2.90;;;2.15;;
12660;SDS011;39039;51.802;5.710;2022-07-23T06:24:59;5.43;;;2.17;;
12660;SDS011;39039;51.802;5.710;2022-07-23T06:27:26;4.85;;;2.13;;
12660;SDS011;39039;51.802;5.710;2022-07-23T06:29:53;4.75;;;1.95;;
12660;SDS011;39039;51.802;5.710;2022-07-23T06:32:22;2.75;;;2.03;;
12660;SDS011;39039;51.802;5.710;2022-07-23T06:34:49;3.20;;;1.80;;
12660;SDS011;39039;51.802;5.710;2022-07-23T06:37:16;2.20;;;1.58;;
12660;SDS011;39039;51.802;5.710;2022-07-23T06:39:43;3.50;;;1.70;;
12660;SDS011;39039;51.802;5.710;2022-07-23T06:42:10;3.85;;;1.48;;
12660;SDS011;39039;51.802;5.710;2022-07-23T06:44:37;3.00;;;1.60;;
12660;SDS011;39039;51.802;5.710;2022-07-23T06:47:04;2.70;;;1.40;;
12660;SDS011;39039;51.802;5.710;2022-07-23T06:49:33;2.40;;;1.00;;
12660;SDS011;39039;51.802;5.710;2022-07-23T06:52:00;2.30;;;1.38;;
12660;SDS011;39039;51.802;5.710;2022-07-23T06:54:27;1.73;;;1.23;;
12660;SDS011;39039;51.802;5.710;2022-07-23T06:56:54;3.42;;;1.20;;
12660;SDS011;39039;51.802;5.710;2022-07-23T06:59:21;2.50;;;1.10;;
12660;SDS011;39039;51.802;5.710;2022-07-23T07:01:48;1.75;;;1.00;;
12660;SDS011;39039;51.802;5.710;2022-07-23T07:04:15;2.50;;;1.13;;
12660;SDS011;39039;51.802;5.710;2022-07-23T07:06:43;1.90;;;1.02;;
12660;SDS011;39039;51.802;5.710;2022-07-23T07:09:10;2.55;;;1.15;;
12660;SDS011;39039;51.802;5.710;2022-07-23T07:11:37;2.83;;;1.30;;
12660;SDS011;39039;51.802;5.710;2022-07-23T07:14:04;3.15;;;1.33;;
12660;SDS011;39039;51.802;5.710;2022-07-23T07:16:31;6.65;;;1.05;;
12660;SDS011;39039;51.802;5.710;2022-07-23T07:18:58;3.05;;;1.00;;
12660;SDS011;39039;51.802;5.710;2022-07-23T07:21:25;1.70;;;1.02;;
12660;SDS011;39039;51.802;5.710;2022-07-23T07:23:54;1.63;;;1.20;;
12660;SDS011;39039;51.802;5.710;2022-07-23T07:26:21;3.35;;;1.00;;
12660;SDS011;39039;51.802;5.710;2022-07-23T07:28:48;2.85;;;0.98;;
12660;SDS011;39039;51.802;5.710;2022-07-23T07:31:15;1.98;;;1.05;;
12660;SDS011;39039;51.802;5.710;2022-07-23T07:33:42;1.70;;;0.80;;
12660;SDS011;39039;51.802;5.710;2022-07-23T07:36:09;2.60;;;0.95;;
12660;SDS011;39039;51.802;5.710;2022-07-23T07:38:36;3.22;;;1.00;;
12660;SDS011;39039;51.802;5.710;2022-07-23T07:41:05;1.92;;;1.25;;
12660;SDS011;39039;51.802;5.710;2022-07-23T07:43:35;2.20;;;1.27;;
12660;SDS011;39039;51.802;5.710;2022-07-23T07:46:02;1.00;;;0.90;;
12660;SDS011;39039;51.802;5.710;2022-07-23T07:48:29;2.15;;;1.10;;
12660;SDS011;39039;51.802;5.710;2022-07-23T07:50:56;1.95;;;1.13;;
12660;SDS011;39039;51.802;5.710;2022-07-23T07:53:23;3.83;;;1.42;;
12660;SDS011;39039;51.802;5.710;2022-07-23T07:55:50;2.97;;;1.30;;
12660;SDS011;39039;51.802;5.710;2022-07-23T07:58:18;3.30;;;1.38;;
12660;SDS011;39039;51.802;5.710;2022-07-23T08:00:45;6.20;;;1.92;;
12660;SDS011;39039;51.802;5.710;2022-07-23T08:03:12;3.47;;;1.52;;
12660;SDS011;39039;51.802;5.710;2022-07-23T08:05:40;5.30;;;1.63;;
12660;SDS011;39039;51.802;5.710;2022-07-23T08:08:07;2.28;;;1.40;;
12660;SDS011;39039;51.802;5.710;2022-07-23T08:10:39;3.47;;;1.50;;
12660;SDS011;39039;51.802;5.710;2022-07-23T08:13:07;3.55;;;1.23;;
12660;SDS011;39039;51.802;5.710;2022-07-23T08:15:35;2.33;;;1.25;;
12660;SDS011;39039;51.802;5.710;2022-07-23T08:18:02;6.00;;;1.40;;
12660;SDS011;39039;51.802;5.710;2022-07-23T08:20:29;4.28;;;1.45;;
12660;SDS011;39039;51.802;5.710;2022-07-23T08:22:57;3.08;;;1.48;;
12660;SDS011;39039;51.802;5.710;2022-07-23T08:25:25;3.85;;;1.50;;
12660;SDS011;39039;51.802;5.710;2022-07-23T08:27:53;1.80;;;1.30;;
12660;SDS011;39039;51.802;5.710;2022-07-23T08:30:20;2.83;;;1.42;;
12660;SDS011;39039;51.802;5.710;2022-07-23T08:32:53;2.85;;;1.52;;
12660;SDS011;39039;51.802;5.710;2022-07-23T08:35:24;4.53;;;1.33;;
12660;SDS011;39039;51.802;5.710;2022-07-23T08:37:52;2.10;;;1.20;;
12660;SDS011;39039;51.802;5.710;2022-07-23T08:40:19;2.15;;;1.40;;
12660;SDS011;39039;51.802;5.710;2022-07-23T08:42:47;2.80;;;1.40;;
12660;SDS011;39039;51.802;5.710;2022-07-23T08:45:16;4.13;;;1.55;;
12660;SDS011;39039;51.802;5.710;2022-07-23T08:47:43;3.92;;;1.45;;
12660;SDS011;39039;51.802;5.710;2022-07-23T08:50:12;2.05;;;1.50;;
12660;SDS011;39039;51.802;5.710;2022-07-23T08:52:39;2.25;;;1.00;;
12660;SDS011;39039;51.802;5.710;2022-07-23T08:55:07;2.83;;;1.65;;
12660;SDS011;39039;51.802;5.710;2022-07-23T08:57:34;2.20;;;1.30;;
12660;SDS011;39039;51.802;5.710;2022-07-23T09:00:01;2.80;;;1.23;;
12660;SDS011;39039;51.802;5.710;2022-07-23T09:02:28;2.95;;;1.40;;
12660;SDS011;39039;51.802;5.710;2022-07-23T09:04:55;5.10;;;1.60;;
12660;SDS011;39039;51.802;5.710;2022-07-23T09:07:23;1.58;;;1.13;;
12660;SDS011;39039;51.802;5.710;2022-07-23T09:10:04;2.88;;;1.60;;
12660;SDS011;39039;51.802;5.710;2022-07-23T09:12:31;3.50;;;1.45;;
12660;SDS011;39039;51.802;5.710;2022-07-23T09:15:00;4.43;;;1.42;;
12660;SDS011;39039;51.802;5.710;2022-07-23T09:17:31;4.15;;;1.15;;
12660;SDS011;39039;51.802;5.710;2022-07-23T09:20:07;3.65;;;1.40;;
12660;SDS011;39039;51.802;5.710;2022-07-23T09:22:44;2.35;;;1.55;;
12660;SDS011;39039;51.802;5.710;2022-07-23T09:25:12;3.17;;;1.88;;
12660;SDS011;39039;51.802;5.710;2022-07-23T09:27:50;3.28;;;1.42;;
12660;SDS011;39039;51.802;5.710;2022-07-23T09:30:18;2.95;;;1.65;;
12660;SDS011;39039;51.802;5.710;2022-07-23T09:35:32;3.97;;;1.70;;
12660;SDS011;39039;51.802;5.710;2022-07-23T09:38:11;3.83;;;1.85;;
12660;SDS011;39039;51.802;5.710;2022-07-23T09:40:38;3.60;;;1.55;;
12660;SDS011;39039;51.802;5.710;2022-07-23T09:43:05;2.15;;;1.55;;
12660;SDS011;39039;51.802;5.710;2022-07-23T09:45:32;3.42;;;1.60;;
12660;SDS011;39039;51.802;5.710;2022-07-23T09:48:09;2.85;;;1.90;;
12660;SDS011;39039;51.802;5.710;2022-07-23T09:50:36;2.83;;;1.30;;
12660;SDS011;39039;51.802;5.710;2022-07-23T09:53:04;5.15;;;1.90;;
12660;SDS011;39039;51.802;5.710;2022-07-23T09:55:33;2.40;;;1.67;;
12660;SDS011;39039;51.802;5.710;2022-07-23T09:58:02;2.45;;;1.70;;
12660;SDS011;39039;51.802;5.710;2022-07-23T10:00:29;2.38;;;1.55;;
12660;SDS011;39039;51.802;5.710;2022-07-23T10:02:57;1.73;;;1.20;;
12660;SDS011;39039;51.802;5.710;2022-07-23T10:05:25;2.97;;;1.40;;
12660;SDS011;39039;51.802;5.710;2022-07-23T10:07:52;2.05;;;1.10;;
12660;SDS011;39039;51.802;5.710;2022-07-23T10:10:20;1.70;;;1.30;;
12660;SDS011;39039;51.802;5.710;2022-07-23T10:12:49;5.22;;;1.60;;
12660;SDS011;39039;51.802;5.710;2022-07-23T10:15:30;3.40;;;2.58;;
12660;SDS011;39039;51.802;5.710;2022-07-23T10:17:57;2.08;;;1.50;;
12660;SDS011;39039;51.802;5.710;2022-07-23T10:20:24;3.15;;;1.40;;
12660;SDS011;39039;51.802;5.710;2022-07-23T10:22:54;3.40;;;1.70;;
12660;SDS011;39039;51.802;5.710;2022-07-23T10:25:27;4.15;;;1.48;;
12660;SDS011;39039;51.802;5.710;2022-07-23T10:28:04;4.18;;;1.45;;
12660;SDS011;39039;51.802;5.710;2022-07-23T10:30:35;1.75;;;1.25;;
12660;SDS011;39039;51.802;5.710;2022-07-23T10:36:01;2.58;;;1.70;;
12660;SDS011;39039;51.802;5.710;2022-07-23T10:38:30;1.88;;;1.60;;
12660;SDS011;39039;51.802;5.710;2022-07-23T10:40:58;2.80;;;1.80;;
12660;SDS011;39039;51.802;5.710;2022-07-23T10:43:26;2.42;;;1.10;;
12660;SDS011;39039;51.802;5.710;2022-07-23T10:45:54;1.85;;;1.17;;
12660;SDS011;39039;51.802;5.710;2022-07-23T10:48:22;4.18;;;1.58;;
12660;SDS011;39039;51.802;5.710;2022-07-23T10:56:14;4.15;;;1.60;;
12660;SDS011;39039;51.802;5.710;2022-07-23T10:58:47;1.63;;;1.27;;
12660;SDS011;39039;51.802;5.710;2022-07-23T11:01:33;2.63;;;1.20;;
12660;SDS011;39039;51.802;5.710;2022-07-23T11:04:01;2.60;;;1.50;;
12660;SDS011;39039;51.802;5.710;2022-07-23T11:09:24;2.00;;;1.40;;
12660;SDS011;39039;51.802;5.710;2022-07-23T11:14:58;3.63;;;1.67;;
12660;SDS011;39039;51.802;5.710;2022-07-23T11:17:26;4.50;;;1.90;;
12660;SDS011;39039;51.802;5.710;2022-07-23T11:20:12;3.22;;;1.98;;
12660;SDS011;39039;51.802;5.710;2022-07-23T11:22:45;2.30;;;1.92;;
12660;SDS011;39039;51.802;5.710;2022-07-23T11:25:13;3.83;;;1.90;;
12660;SDS011;39039;51.802;5.710;2022-07-23T11:27:41;2.28;;;1.40;;
12660;SDS011;39039;51.802;5.710;2022-07-23T11:30:10;2.67;;;1.52;;
12660;SDS011;39039;51.802;5.710;2022-07-23T11:32:38;2.88;;;1.60;;
12660;SDS011;39039;51.802;5.710;2022-07-23T11:35:26;3.00;;;1.55;;
12660;SDS011;39039;51.802;5.710;2022-07-23T11:38:02;3.50;;;2.03;;
12660;SDS011;39039;51.802;5.710;2022-07-23T11:40:30;3.63;;;1.40;;
12660;SDS011;39039;51.802;5.710;2022-07-23T11:42:57;2.58;;;1.67;;
12660;SDS011;39039;51.802;5.710;2022-07-23T11:45:30;4.35;;;1.80;;
12660;SDS011;39039;51.802;5.710;2022-07-23T11:48:00;3.50;;;1.83;;
12660;SDS011;39039;51.802;5.710;2022-07-23T11:50:28;2.95;;;1.50;;
12660;SDS011;39039;51.802;5.710;2022-07-23T11:52:55;3.47;;;1.83;;
12660;SDS011;39039;51.802;5.710;2022-07-23T11:55:22;2.17;;;1.80;;
12660;SDS011;39039;51.802;5.710;2022-07-23T11:57:50;2.05;;;1.30;;
12660;SDS011;39039;51.802;5.710;2022-07-23T12:00:18;3.13;;;1.63;;
12660;SDS011;39039;51.802;5.710;2022-07-23T12:02:47;2.05;;;1.45;;
12660;SDS011;39039;51.802;5.710;2022-07-23T12:05:16;1.73;;;1.02;;
12660;SDS011;39039;51.802;5.710;2022-07-23T12:07:43;3.05;;;1.20;;
12660;SDS011;39039;51.802;5.710;2022-07-23T12:10:15;1.75;;;1.20;;
12660;SDS011;39039;51.802;5.710;2022-07-23T12:12:43;2.15;;;1.27;;
12660;SDS011;39039;51.802;5.710;2022-07-23T12:15:11;1.77;;;1.38;;
12660;SDS011;39039;51.802;5.710;2022-07-23T12:17:39;2.03;;;1.38;;
12660;SDS011;39039;51.802;5.710;2022-07-23T12:20:08;3.83;;;1.10;;
12660;SDS011;39039;51.802;5.710;2022-07-23T12:22:37;2.30;;;1.27;;
12660;SDS011;39039;51.802;5.710;2022-07-23T12:25:06;2.67;;;1.20;;
12660;SDS011;39039;51.802;5.710;2022-07-23T12:27:34;1.55;;;1.00;;
12660;SDS011;39039;51.802;5.710;2022-07-23T12:30:21;1.10;;;0.98;;
12660;SDS011;39039;51.802;5.710;2022-07-23T12:32:49;2.05;;;1.20;;
12660;SDS011;39039;51.802;5.710;2022-07-23T12:35:18;1.83;;;1.15;;
12660;SDS011;39039;51.802;5.710;2022-07-23T12:37:46;2.25;;;1.20;;
12660;SDS011;39039;51.802;5.710;2022-07-23T12:40:23;1.20;;;0.95;;
12660;SDS011;39039;51.802;5.710;2022-07-23T12:42:51;1.73;;;0.98;;
12660;SDS011;39039;51.802;5.710;2022-07-23T12:45:20;1.35;;;0.90;;
12660;SDS011;39039;51.802;5.710;2022-07-23T12:47:50;1.20;;;0.90;;
12660;SDS011;39039;51.802;5.710;2022-07-23T12:50:36;2.47;;;0.85;;
12660;SDS011;39039;51.802;5.710;2022-07-23T12:53:05;2.15;;;1.10;;
12660;SDS011;39039;51.802;5.710;2022-07-23T12:55:32;1.85;;;1.20;;
12660;SDS011;39039;51.802;5.710;2022-07-23T12:58:02;2.03;;;1.27;;
12660;SDS011;39039;51.802;5.710;2022-07-23T13:00:30;3.70;;;1.30;;
12660;SDS011;39039;51.802;5.710;2022-07-23T13:02:58;1.33;;;1.10;;
12660;SDS011;39039;51.802;5.710;2022-07-23T13:05:25;2.22;;;1.45;;
12660;SDS011;39039;51.802;5.710;2022-07-23T13:07:53;5.30;;;1.25;;
12660;SDS011;39039;51.802;5.710;2022-07-23T13:10:20;3.00;;;1.23;;
12660;SDS011;39039;51.802;5.710;2022-07-23T13:12:47;3.85;;;1.35;;
12660;SDS011;39039;51.802;5.710;2022-07-23T13:15:14;3.75;;;1.38;;
12660;SDS011;39039;51.802;5.710;2022-07-23T13:17:41;3.13;;;1.60;;
12660;SDS011;39039;51.802;5.710;2022-07-23T13:20:10;3.72;;;1.00;;
12660;SDS011;39039;51.802;5.710;2022-07-23T13:22:37;1.90;;;1.33;;
12660;SDS011;39039;51.802;5.710;2022-07-23T13:25:06;2.17;;;1.20;;
12660;SDS011;39039;51.802;5.710;2022-07-23T13:27:34;1.92;;;1.17;;
12660;SDS011;39039;51.802;5.710;2022-07-23T13:30:01;3.05;;;1.42;;
12660;SDS011;39039;51.802;5.710;2022-07-23T13:32:28;4.47;;;1.38;;
12660;SDS011;39039;51.802;5.710;2022-07-23T13:34:55;1.95;;;1.15;;
12660;SDS011;39039;51.802;5.710;2022-07-23T13:37:22;2.80;;;1.63;;
12660;SDS011;39039;51.802;5.710;2022-07-23T13:39:49;1.98;;;1.38;;
12660;SDS011;39039;51.802;5.710;2022-07-23T13:42:17;1.77;;;1.10;;
12660;SDS011;39039;51.802;5.710;2022-07-23T13:44:44;4.45;;;1.15;;
12660;SDS011;39039;51.802;5.710;2022-07-23T13:47:12;2.22;;;1.20;;
12660;SDS011;39039;51.802;5.710;2022-07-23T13:49:39;1.52;;;0.90;;
12660;SDS011;39039;51.802;5.710;2022-07-23T13:52:06;3.13;;;1.40;;
12660;SDS011;39039;51.802;5.710;2022-07-23T13:54:33;1.67;;;1.20;;
12660;SDS011;39039;51.802;5.710;2022-07-23T13:57:00;1.63;;;1.17;;
12660;SDS011;39039;51.802;5.710;2022-07-23T13:59:28;2.05;;;1.10;;
12660;SDS011;39039;51.802;5.710;2022-07-23T14:01:55;2.35;;;1.17;;
12660;SDS011;39039;51.802;5.710;2022-07-23T14:04:22;2.90;;;1.20;;
12660;SDS011;39039;51.802;5.710;2022-07-23T14:06:49;1.50;;;1.00;;
12660;SDS011;39039;51.802;5.710;2022-07-23T14:09:16;5.45;;;1.02;;
12660;SDS011;39039;51.802;5.710;2022-07-23T14:11:43;2.47;;;1.13;;
12660;SDS011;39039;51.802;5.710;2022-07-23T14:14:10;6.00;;;1.17;;
12660;SDS011;39039;51.802;5.710;2022-07-23T14:16:39;1.55;;;1.20;;
12660;SDS011;39039;51.802;5.710;2022-07-23T14:19:06;1.80;;;1.02;;
12660;SDS011;39039;51.802;5.710;2022-07-23T14:21:33;1.80;;;1.20;;
12660;SDS011;39039;51.802;5.710;2022-07-23T14:24:00;1.80;;;0.85;;
12660;SDS011;39039;51.802;5.710;2022-07-23T14:26:27;1.73;;;1.05;;
12660;SDS011;39039;51.802;5.710;2022-07-23T14:28:54;1.75;;;1.17;;
12660;SDS011;39039;51.802;5.710;2022-07-23T14:31:21;1.92;;;1.30;;
12660;SDS011;39039;51.802;5.710;2022-07-23T14:33:49;2.47;;;1.38;;
12660;SDS011;39039;51.802;5.710;2022-07-23T14:36:16;2.00;;;1.20;;
12660;SDS011;39039;51.802;5.710;2022-07-23T14:38:43;2.20;;;1.52;;
12660;SDS011;39039;51.802;5.710;2022-07-23T14:41:10;2.30;;;1.27;;
12660;SDS011;39039;51.802;5.710;2022-07-23T14:43:38;3.33;;;1.38;;
12660;SDS011;39039;51.802;5.710;2022-07-23T14:46:05;1.73;;;1.00;;
12660;SDS011;39039;51.802;5.710;2022-07-23T14:48:32;2.42;;;1.25;;
12660;SDS011;39039;51.802;5.710;2022-07-23T14:51:00;3.40;;;1.40;;
12660;SDS011;39039;51.802;5.710;2022-07-23T14:53:27;2.58;;;1.00;;
12660;SDS011;39039;51.802;5.710;2022-07-23T14:55:55;2.10;;;1.10;;
12660;SDS011;39039;51.802;5.710;2022-07-23T14:58:22;1.55;;;1.10;;
12660;SDS011;39039;51.802;5.710;2022-07-23T15:00:49;2.25;;;1.13;;
12660;SDS011;39039;51.802;5.710;2022-07-23T15:03:16;1.88;;;1.10;;
12660;SDS011;39039;51.802;5.710;2022-07-23T15:05:43;1.40;;;1.00;;
12660;SDS011;39039;51.802;5.710;2022-07-23T15:08:11;2.40;;;1.10;;
12660;SDS011;39039;51.802;5.710;2022-07-23T15:10:38;1.50;;;1.00;;